sensor_id;sensor_type;location;lat;lon;timestamp;pressure;altitude;pressure_sealevel;temperature;humidity
48792;BME280;34587;48.816;9.420;2023-07-20T04:16:34;98671.31;;;15.25;77.35
48792;BME280;34587;48.816;9.420;2023-07-20T04:18:59;98675.34;;;15.10;77.77
48792;BME280;34587;48.816;9.420;2023-07-20T04:21:26;98674.03;;;15.22;77.48
48792;BME280;34587;48.816;9.420;2023-07-20T04:23:51;98670.47;;;15.24;76.52
48792;BME280;34587;48.816;9.420;2023-07-20T04:26:17;98671.06;;;15.31;76.27
48792;BME280;34587;48.816;9.420;2023-07-20T04:28:42;98671.16;;;15.28;76.20
48792;BME280;34587;48.816;9.420;2023-07-20T04:31:14;98673.06;;;15.46;76.35
48792;BME280;34587;48.816;9.420;2023-07-20T04:33:41;98680.91;;;15.46;75.94
48792;BME280;34587;48.816;9.420;2023-07-20T04:36:07;98673.38;;;15.60;74.77
48792;BME280;34587;48.816;9.420;2023-07-20T04:38:33;98671.34;;;15.68;75.44
48792;BME280;34587;48.816;9.420;2023-07-20T04:40:58;98674.88;;;15.67;75.43
48792;BME280;34587;48.816;9.420;2023-07-20T04:43:23;98673.84;;;15.72;75.69
48792;BME280;34587;48.816;9.420;2023-07-20T04:45:49;98677.53;;;15.88;74.07
48792;BME280;34587;48.816;9.420;2023-07-20T04:48:16;98675.44;;;15.96;73.32
48792;BME280;34587;48.816;9.420;2023-07-20T04:50:43;98682.00;;;16.06;75.95
48792;BME280;34587;48.816;9.420;2023-07-20T04:53:10;98686.19;;;16.10;73.75
48792;BME280;34587;48.816;9.420;2023-07-20T04:55:36;98676.13;;;16.22;73.48
48792;BME280;34587;48.816;9.420;2023-07-20T04:58:02;98679.13;;;16.33;73.32
48792;BME280;34587;48.816;9.420;2023-07-20T05:00:29;98672.81;;;16.57;72.01
48792;BME280;34587;48.816;9.420;2023-07-20T05:02:55;98681.31;;;16.62;71.81
48792;BME280;34587;48.816;9.420;2023-07-20T05:05:20;98685.38;;;16.69;72.49
48792;BME280;34587;48.816;9.420;2023-07-20T05:07:45;98676.44;;;16.94;71.12
48792;BME280;34587;48.816;9.420;2023-07-20T05:10:11;98686.22;;;17.09;69.67
48792;BME280;34587;48.816;9.420;2023-07-20T05:12:36;98684.34;;;17.30;68.73
48792;BME280;34587;48.816;9.420;2023-07-20T05:15:02;98673.28;;;17.61;67.55
48792;BME280;34587;48.816;9.420;2023-07-20T05:17:28;98676.53;;;17.66;67.13
48792;BME280;34587;48.816;9.420;2023-07-20T05:19:54;98670.72;;;17.79;66.17
48792;BME280;34587;48.816;9.420;2023-07-20T05:22:19;98678.75;;;17.93;65.10
48792;BME280;34587;48.816;9.420;2023-07-20T05:24:45;98674.91;;;18.17;64.58
48792;BME280;34587;48.816;9.420;2023-07-20T05:27:10;98672.13;;;18.38;64.43
48792;BME280;34587;48.816;9.420;2023-07-20T05:29:35;98670.50;;;18.35;63.85
48792;BME280;34587;48.816;9.420;2023-07-20T05:32:01;98671.19;;;18.39;64.62
48792;BME280;34587;48.816;9.420;2023-07-20T05:34:28;98672.78;;;18.59;64.50
48792;BME280;34587;48.816;9.420;2023-07-20T05:36:53;98674.09;;;18.50;63.48
48792;BME280;34587;48.816;9.420;2023-07-20T05:39:18;98675.09;;;18.82;63.17
48792;BME280;34587;48.816;9.420;2023-07-20T05:41:44;98677.97;;;19.09;62.87
48792;BME280;34587;48.816;9.420;2023-07-20T05:44:09;98669.34;;;19.39;61.82
48792;BME280;34587;48.816;9.420;2023-07-20T05:46:34;98665.47;;;19.46;61.51
48792;BME280;34587;48.816;9.420;2023-07-20T05:49:00;98667.47;;;19.72;59.78
48792;BME280;34587;48.816;9.420;2023-07-20T05:51:25;98669.84;;;19.93;59.78
48792;BME280;34587;48.816;9.420;2023-07-20T05:53:51;98665.09;;;20.14;58.38
48792;BME280;34587;48.816;9.420;2023-07-20T05:56:16;98674.00;;;20.11;57.00
48792;BME280;34587;48.816;9.420;2023-07-20T05:58:42;98677.03;;;20.19;56.04
48792;BME280;34587;48.816;9.420;2023-07-20T06:01:07;98675.59;;;20.44;55.80
48792;BME280;34587;48.816;9.420;2023-07-20T06:03:32;98682.03;;;20.54;55.50
48792;BME280;34587;48.816;9.420;2023-07-20T06:06:01;98678.69;;;20.06;55.84
48792;BME280;34587;48.816;9.420;2023-07-20T06:08:28;98684.25;;;20.46;56.02
48792;BME280;34587;48.816;9.420;2023-07-20T06:10:53;98677.59;;;21.12;54.48
48792;BME280;34587;48.816;9.420;2023-07-20T06:13:19;98685.72;;;21.09;53.25
48792;BME280;34587;48.816;9.420;2023-07-20T06:15:44;98675.81;;;20.98;53.59
48792;BME280;34587;48.816;9.420;2023-07-20T06:18:09;98683.81;;;20.53;54.90
48792;BME280;34587;48.816;9.420;2023-07-20T06:20:35;98683.06;;;20.51;54.87
48792;BME280;34587;48.816;9.420;2023-07-20T06:23:00;98680.34;;;20.82;54.23
48792;BME280;34587;48.816;9.420;2023-07-20T06:25:25;98681.91;;;21.27;52.96
48792;BME280;34587;48.816;9.420;2023-07-20T06:27:51;98677.88;;;21.21;53.54
48792;BME280;34587;48.816;9.420;2023-07-20T06:30:17;98676.44;;;21.44;52.25
48792;BME280;34587;48.816;9.420;2023-07-20T06:32:42;98680.81;;;21.31;53.29
48792;BME280;34587;48.816;9.420;2023-07-20T06:35:07;98679.53;;;21.51;53.60
48792;BME280;34587;48.816;9.420;2023-07-20T06:37:33;98676.84;;;22.19;50.74
48792;BME280;34587;48.816;9.420;2023-07-20T06:39:59;98674.13;;;22.59;49.78
48792;BME280;34587;48.816;9.420;2023-07-20T06:42:25;98677.94;;;22.55;49.28
48792;BME280;34587;48.816;9.420;2023-07-20T06:44:50;98674.75;;;22.63;48.91
48792;BME280;34587;48.816;9.420;2023-07-20T06:47:16;98675.38;;;22.41;50.61
48792;BME280;34587;48.816;9.420;2023-07-20T06:49:41;98675.81;;;22.35;49.63
48792;BME280;34587;48.816;9.420;2023-07-20T06:52:06;98668.84;;;22.59;49.63
48792;BME280;34587;48.816;9.420;2023-07-20T06:54:32;98673.28;;;22.71;48.47
48792;BME280;34587;48.816;9.420;2023-07-20T06:56:57;98671.31;;;23.61;46.40
48792;BME280;34587;48.816;9.420;2023-07-20T06:59:23;98669.28;;;24.48;44.75
48792;BME280;34587;48.816;9.420;2023-07-20T07:01:49;98680.16;;;24.32;45.08
48792;BME280;34587;48.816;9.420;2023-07-20T07:04:14;98668.81;;;24.99;44.19
48792;BME280;34587;48.816;9.420;2023-07-20T07:06:40;98663.25;;;27.35;39.85
48792;BME280;34587;48.816;9.420;2023-07-20T07:09:05;98681.47;;;26.48;40.14
48792;BME280;34587;48.816;9.420;2023-07-20T07:11:31;98676.44;;;25.80;41.60
48792;BME280;34587;48.816;9.420;2023-07-20T07:13:56;98664.31;;;28.31;37.31
48792;BME280;34587;48.816;9.420;2023-07-20T07:16:21;98663.28;;;29.08;35.38
48792;BME280;34587;48.816;9.420;2023-07-20T07:18:47;98660.53;;;31.46;31.88
48792;BME280;34587;48.816;9.420;2023-07-20T07:21:13;98659.97;;;31.77;31.49
48792;BME280;34587;48.816;9.420;2023-07-20T07:23:38;98661.69;;;30.24;33.79
48792;BME280;34587;48.816;9.420;2023-07-20T07:26:04;98662.03;;;27.49;38.22
48792;BME280;34587;48.816;9.420;2023-07-20T07:28:29;98667.25;;;26.17;41.02
48792;BME280;34587;48.816;9.420;2023-07-20T07:30:55;98657.00;;;27.65;38.73
48792;BME280;34587;48.816;9.420;2023-07-20T07:33:22;98659.56;;;29.46;35.93
48792;BME280;34587;48.816;9.420;2023-07-20T07:35:47;98665.09;;;25.67;41.87
48792;BME280;34587;48.816;9.420;2023-07-20T07:38:12;98657.25;;;27.42;39.58
48792;BME280;34587;48.816;9.420;2023-07-20T07:40:38;98654.53;;;27.73;37.95
48792;BME280;34587;48.816;9.420;2023-07-20T07:43:03;98658.25;;;26.71;40.62
48792;BME280;34587;48.816;9.420;2023-07-20T07:45:28;98655.44;;;25.34;42.65
48792;BME280;34587;48.816;9.420;2023-07-20T07:47:53;98656.75;;;24.50;44.22
48792;BME280;34587;48.816;9.420;2023-07-20T07:50:19;98648.88;;;23.91;45.66
48792;BME280;34587;48.816;9.420;2023-07-20T07:52:44;98654.16;;;23.91;46.11
48792;BME280;34587;48.816;9.420;2023-07-20T07:55:09;98657.44;;;22.97;47.54
48792;BME280;34587;48.816;9.420;2023-07-20T07:57:35;98657.44;;;22.46;49.77
48792;BME280;34587;48.816;9.420;2023-07-20T08:00:00;98653.84;;;22.98;49.44
48792;BME280;34587;48.816;9.420;2023-07-20T08:02:25;98652.53;;;23.16;48.23
48792;BME280;34587;48.816;9.420;2023-07-20T08:04:51;98654.91;;;22.82;49.26
48792;BME280;34587;48.816;9.420;2023-07-20T08:07:17;98655.44;;;23.24;48.55
48792;BME280;34587;48.816;9.420;2023-07-20T08:09:42;98649.50;;;22.97;49.22
48792;BME280;34587;48.816;9.420;2023-07-20T08:12:08;98648.66;;;22.32;49.86
48792;BME280;34587;48.816;9.420;2023-07-20T08:14:33;98652.81;;;21.70;52.56
48792;BME280;34587;48.816;9.420;2023-07-20T08:16:59;98646.56;;;21.98;52.44
48792;BME280;34587;48.816;9.420;2023-07-20T08:19:24;98651.50;;;22.80;50.37
48792;BME280;34587;48.816;9.420;2023-07-20T08:21:49;98653.53;;;22.39;51.67
48792;BME280;34587;48.816;9.420;2023-07-20T08:24:15;98653.88;;;22.07;51.79
48792;BME280;34587;48.816;9.420;2023-07-20T08:26:40;98645.28;;;22.30;51.16
48792;BME280;34587;48.816;9.420;2023-07-20T08:29:05;98636.50;;;22.43;49.84
48792;BME280;34587;48.816;9.420;2023-07-20T08:31:31;98643.28;;;22.47;50.75
48792;BME280;34587;48.816;9.420;2023-07-20T08:33:56;98644.56;;;22.54;50.39
48792;BME280;34587;48.816;9.420;2023-07-20T08:36:22;98642.00;;;24.23;46.42
48792;BME280;34587;48.816;9.420;2023-07-20T08:38:47;98635.22;;;29.04;37.34
48792;BME280;34587;48.816;9.420;2023-07-20T08:41:14;98622.06;;;30.45;34.51
48792;BME280;34587;48.816;9.420;2023-07-20T08:43:42;98624.50;;;32.16;31.53
48792;BME280;34587;48.816;9.420;2023-07-20T08:46:10;98629.25;;;33.79;28.96
48792;BME280;34587;48.816;9.420;2023-07-20T08:48:36;98639.94;;;33.33;29.19
48792;BME280;34587;48.816;9.420;2023-07-20T08:51:03;98637.34;;;29.00;34.51
48792;BME280;34587;48.816;9.420;2023-07-20T08:53:29;98636.13;;;26.28;39.16
48792;BME280;34587;48.816;9.420;2023-07-20T08:55:57;98641.59;;;25.30;41.35
48792;BME280;34587;48.816;9.420;2023-07-20T08:58:25;98650.50;;;24.62;43.80
48792;BME280;34587;48.816;9.420;2023-07-20T09:00:52;98639.59;;;23.85;45.49
48792;BME280;34587;48.816;9.420;2023-07-20T09:03:18;98645.69;;;23.38;45.70
48792;BME280;34587;48.816;9.420;2023-07-20T09:05:44;98647.50;;;22.62;47.45
48792;BME280;34587;48.816;9.420;2023-07-20T09:08:10;98646.97;;;22.31;48.67
48792;BME280;34587;48.816;9.420;2023-07-20T09:10:35;98646.06;;;22.05;49.51
48792;BME280;34587;48.816;9.420;2023-07-20T09:13:00;98643.25;;;22.72;48.62
48792;BME280;34587;48.816;9.420;2023-07-20T09:15:26;98628.59;;;25.16;43.87
48792;BME280;34587;48.816;9.420;2023-07-20T09:17:51;98627.66;;;28.99;35.86
48792;BME280;34587;48.816;9.420;2023-07-20T09:20:19;98626.81;;;31.19;32.91
48792;BME280;34587;48.816;9.420;2023-07-20T09:22:45;98623.97;;;33.00;28.93
48792;BME280;34587;48.816;9.420;2023-07-20T09:25:17;98626.72;;;34.46;26.94
48792;BME280;34587;48.816;9.420;2023-07-20T09:27:45;98622.56;;;34.59;26.71
48792;BME280;34587;48.816;9.420;2023-07-20T09:30:11;98626.84;;;32.11;28.90
48792;BME280;34587;48.816;9.420;2023-07-20T09:32:43;98618.28;;;34.12;27.37
48792;BME280;34587;48.816;9.420;2023-07-20T09:35:16;98624.72;;;31.47;29.41
48792;BME280;34587;48.816;9.420;2023-07-20T09:37:49;98630.47;;;32.59;28.65
48792;BME280;34587;48.816;9.420;2023-07-20T09:40:18;98625.19;;;33.83;27.22
48792;BME280;34587;48.816;9.420;2023-07-20T09:42:43;98620.66;;;34.07;27.15
48792;BME280;34587;48.816;9.420;2023-07-20T09:45:09;98625.91;;;31.61;29.70
48792;BME280;34587;48.816;9.420;2023-07-20T09:47:36;98626.34;;;30.64;31.41
48792;BME280;34587;48.816;9.420;2023-07-20T09:50:02;98619.47;;;33.32;27.98
48792;BME280;34587;48.816;9.420;2023-07-20T09:52:29;98615.59;;;35.09;26.04
48792;BME280;34587;48.816;9.420;2023-07-20T09:54:55;98615.44;;;32.17;29.22
48792;BME280;34587;48.816;9.420;2023-07-20T09:57:21;98616.78;;;28.83;33.22
48792;BME280;34587;48.816;9.420;2023-07-20T09:59:46;98629.75;;;27.13;36.39
48792;BME280;34587;48.816;9.420;2023-07-20T10:02:20;98622.66;;;25.99;38.29
48792;BME280;34587;48.816;9.420;2023-07-20T10:04:47;98631.34;;;24.92;40.20
48792;BME280;34587;48.816;9.420;2023-07-20T10:07:14;98620.84;;;27.03;36.43
48792;BME280;34587;48.816;9.420;2023-07-20T10:09:42;98618.31;;;29.40;33.08
48792;BME280;34587;48.816;9.420;2023-07-20T10:12:09;98623.25;;;26.45;36.58
48792;BME280;34587;48.816;9.420;2023-07-20T10:14:38;98611.84;;;26.54;37.39
48792;BME280;34587;48.816;9.420;2023-07-20T10:17:07;98608.88;;;28.81;33.51
48792;BME280;34587;48.816;9.420;2023-07-20T10:19:47;98603.03;;;31.99;29.00
48792;BME280;34587;48.816;9.420;2023-07-20T10:22:19;98595.63;;;31.53;29.56
48792;BME280;34587;48.816;9.420;2023-07-20T10:24:46;98601.31;;;30.13;30.44
48792;BME280;34587;48.816;9.420;2023-07-20T10:27:12;98594.97;;;32.24;29.07
48792;BME280;34587;48.816;9.420;2023-07-20T10:29:39;98592.09;;;33.60;26.78
48792;BME280;34587;48.816;9.420;2023-07-20T10:32:05;98608.22;;;31.18;29.35
48792;BME280;34587;48.816;9.420;2023-07-20T10:34:31;98599.00;;;27.59;33.71
48792;BME280;34587;48.816;9.420;2023-07-20T10:36:57;98596.41;;;26.06;36.19
48792;BME280;34587;48.816;9.420;2023-07-20T10:39:27;98588.50;;;28.90;32.72
48792;BME280;34587;48.816;9.420;2023-07-20T10:42:03;98580.97;;;30.20;30.73
48792;BME280;34587;48.816;9.420;2023-07-20T10:44:31;98571.97;;;31.32;28.42
48792;BME280;34587;48.816;9.420;2023-07-20T10:47:01;98579.94;;;29.77;30.75
48792;BME280;34587;48.816;9.420;2023-07-20T10:49:27;98578.38;;;30.96;28.90
48792;BME280;34587;48.816;9.420;2023-07-20T10:51:58;98580.03;;;32.38;27.75
48792;BME280;34587;48.816;9.420;2023-07-20T10:56:51;98569.78;;;31.27;29.19
48792;BME280;34587;48.816;9.420;2023-07-20T10:59:19;98560.94;;;31.35;28.16
48792;BME280;34587;48.816;9.420;2023-07-20T11:01:47;98556.75;;;33.48;25.93
48792;BME280;34587;48.816;9.420;2023-07-20T11:04:16;98567.84;;;30.69;28.36
48792;BME280;34587;48.816;9.420;2023-07-20T11:06:44;98575.59;;;29.76;29.44
48792;BME280;34587;48.816;9.420;2023-07-20T11:09:11;98563.22;;;29.39;30.56
48792;BME280;34587;48.816;9.420;2023-07-20T11:11:41;98571.41;;;28.83;30.80
48792;BME280;34587;48.816;9.420;2023-07-20T11:14:26;98564.06;;;29.93;30.13
48792;BME280;34587;48.816;9.420;2023-07-20T11:16:53;98557.28;;;31.60;27.60
48792;BME280;34587;48.816;9.420;2023-07-20T11:19:24;98567.50;;;30.12;28.78
48792;BME280;34587;48.816;9.420;2023-07-20T11:21:54;98559.72;;;30.44;28.39
48792;BME280;34587;48.816;9.420;2023-07-20T11:24:20;98553.84;;;29.35;29.73
48792;BME280;34587;48.816;9.420;2023-07-20T11:26:50;98549.06;;;30.53;29.32
48792;BME280;34587;48.816;9.420;2023-07-20T11:29:16;98551.28;;;32.63;26.89
48792;BME280;34587;48.816;9.420;2023-07-20T11:31:43;98556.09;;;32.36;26.54
48792;BME280;34587;48.816;9.420;2023-07-20T11:34:11;98555.44;;;31.44;27.22
48792;BME280;34587;48.816;9.420;2023-07-20T11:36:39;98563.69;;;29.88;28.54
48792;BME280;34587;48.816;9.420;2023-07-20T11:39:06;98562.88;;;29.70;29.32
48792;BME280;34587;48.816;9.420;2023-07-20T11:41:32;98553.22;;;29.41;28.54
48792;BME280;34587;48.816;9.420;2023-07-20T11:43:58;98557.19;;;29.73;29.21
48792;BME280;34587;48.816;9.420;2023-07-20T11:46:23;98559.22;;;27.77;30.20
48792;BME280;34587;48.816;9.420;2023-07-20T11:48:49;98546.66;;;29.54;28.98
48792;BME280;34587;48.816;9.420;2023-07-20T11:51:17;98546.31;;;32.43;25.67
48792;BME280;34587;48.816;9.420;2023-07-20T11:53:46;98538.06;;;33.92;24.37
48792;BME280;34587;48.816;9.420;2023-07-20T11:56:12;98538.56;;;30.93;26.44
48792;BME280;34587;48.816;9.420;2023-07-20T11:58:44;98535.31;;;32.14;26.20
48792;BME280;34587;48.816;9.420;2023-07-20T12:01:09;98529.41;;;33.44;24.94
48792;BME280;34587;48.816;9.420;2023-07-20T12:03:36;98533.44;;;33.40;24.90
48792;BME280;34587;48.816;9.420;2023-07-20T12:06:08;98540.94;;;29.49;29.58
48792;BME280;34587;48.816;9.420;2023-07-20T12:08:33;98530.50;;;29.02;29.41
48792;BME280;34587;48.816;9.420;2023-07-20T12:10:59;98525.69;;;29.41;29.50
48792;BME280;34587;48.816;9.420;2023-07-20T12:13:35;98529.84;;;28.53;29.72
48792;BME280;34587;48.816;9.420;2023-07-20T12:16:08;98525.63;;;28.60;29.87
48792;BME280;34587;48.816;9.420;2023-07-20T12:18:37;98525.44;;;27.48;31.44
48792;BME280;34587;48.816;9.420;2023-07-20T12:21:02;98521.66;;;27.51;30.61
48792;BME280;34587;48.816;9.420;2023-07-20T12:23:35;98516.59;;;27.67;30.60
48792;BME280;34587;48.816;9.420;2023-07-20T12:26:00;98512.41;;;27.26;30.24
48792;BME280;34587;48.816;9.420;2023-07-20T12:28:26;98503.41;;;27.65;30.50
48792;BME280;34587;48.816;9.420;2023-07-20T12:30:51;98500.06;;;27.54;30.91
48792;BME280;34587;48.816;9.420;2023-07-20T12:33:21;98497.41;;;27.63;30.78
48792;BME280;34587;48.816;9.420;2023-07-20T12:35:48;98506.53;;;27.61;30.82
48792;BME280;34587;48.816;9.420;2023-07-20T12:38:14;98504.84;;;26.52;31.63
48792;BME280;34587;48.816;9.420;2023-07-20T12:40:39;98506.56;;;27.41;30.27
48792;BME280;34587;48.816;9.420;2023-07-20T12:43:05;98502.88;;;27.81;29.35
48792;BME280;34587;48.816;9.420;2023-07-20T12:45:31;98497.56;;;27.62;29.52
48792;BME280;34587;48.816;9.420;2023-07-20T12:47:57;98494.66;;;28.12;29.64
48792;BME280;34587;48.816;9.420;2023-07-20T12:50:22;98490.72;;;28.16;30.72
48792;BME280;34587;48.816;9.420;2023-07-20T12:52:47;98488.09;;;28.06;30.53
48792;BME280;34587;48.816;9.420;2023-07-20T12:55:13;98478.91;;;28.83;29.57
48792;BME280;34587;48.816;9.420;2023-07-20T12:57:38;98473.75;;;29.35;28.66
48792;BME280;34587;48.816;9.420;2023-07-20T13:00:05;98479.47;;;28.59;29.00
48792;BME280;34587;48.816;9.420;2023-07-20T13:02:32;98486.81;;;28.48;28.95
48792;BME280;34587;48.816;9.420;2023-07-20T13:04:58;98474.78;;;28.43;30.54
48792;BME280;34587;48.816;9.420;2023-07-20T13:07:43;98486.03;;;27.90;30.10
48792;BME280;34587;48.816;9.420;2023-07-20T13:10:10;98480.34;;;27.56;29.79
48792;BME280;34587;48.816;9.420;2023-07-20T13:12:36;98474.03;;;28.14;29.28
48792;BME280;34587;48.816;9.420;2023-07-20T13:15:06;98466.75;;;27.11;29.74
48792;BME280;34587;48.816;9.420;2023-07-20T13:17:33;98471.19;;;27.78;29.77
48792;BME280;34587;48.816;9.420;2023-07-20T13:19:58;98473.59;;;27.81;30.01
48792;BME280;34587;48.816;9.420;2023-07-20T13:22:23;98466.09;;;27.95;29.79
48792;BME280;34587;48.816;9.420;2023-07-20T13:24:49;98472.38;;;27.37;30.38
48792;BME280;34587;48.816;9.420;2023-07-20T13:27:16;98467.28;;;26.05;30.96
48792;BME280;34587;48.816;9.420;2023-07-20T13:29:41;98460.91;;;26.57;30.92
48792;BME280;34587;48.816;9.420;2023-07-20T13:32:07;98462.00;;;28.10;28.96
48792;BME280;34587;48.816;9.420;2023-07-20T13:34:33;98452.66;;;28.61;28.68
48792;BME280;34587;48.816;9.420;2023-07-20T13:36:59;98449.56;;;28.83;29.17
48792;BME280;34587;48.816;9.420;2023-07-20T13:39:24;98455.19;;;27.88;29.69
48792;BME280;34587;48.816;9.420;2023-07-20T13:41:52;98462.78;;;26.76;29.71
48792;BME280;34587;48.816;9.420;2023-07-20T13:44:17;98450.44;;;27.91;29.53
48792;BME280;34587;48.816;9.420;2023-07-20T13:46:42;98449.66;;;27.72;29.51
48792;BME280;34587;48.816;9.420;2023-07-20T13:49:08;98450.13;;;27.95;30.14
48792;BME280;34587;48.816;9.420;2023-07-20T13:51:33;98442.72;;;27.88;29.58
48792;BME280;34587;48.816;9.420;2023-07-20T13:53:58;98437.66;;;27.19;30.51
48792;BME280;34587;48.816;9.420;2023-07-20T13:56:24;98440.97;;;27.02;30.79
48792;BME280;34587;48.816;9.420;2023-07-20T13:58:50;98437.78;;;27.18;30.03
48792;BME280;34587;48.816;9.420;2023-07-20T14:01:16;98446.03;;;27.24;30.44
48792;BME280;34587;48.816;9.420;2023-07-20T14:03:42;98429.13;;;27.91;30.12
48792;BME280;34587;48.816;9.420;2023-07-20T14:06:08;98435.38;;;27.44;30.80
48792;BME280;34587;48.816;9.420;2023-07-20T14:08:33;98418.81;;;28.43;29.05
48792;BME280;34587;48.816;9.420;2023-07-20T14:10:58;98425.78;;;27.70;29.76
48792;BME280;34587;48.816;9.420;2023-07-20T14:13:24;98420.53;;;28.35;29.03
48792;BME280;34587;48.816;9.420;2023-07-20T14:15:49;98429.22;;;26.85;29.97
48792;BME280;34587;48.816;9.420;2023-07-20T14:18:15;98430.63;;;26.79;31.11
48792;BME280;34587;48.816;9.420;2023-07-20T14:20:40;98426.53;;;26.56;30.43
48792;BME280;34587;48.816;9.420;2023-07-20T14:23:06;98419.53;;;26.24;30.69
48792;BME280;34587;48.816;9.420;2023-07-20T14:25:31;98413.69;;;26.80;30.13
48792;BME280;34587;48.816;9.420;2023-07-20T14:27:58;98410.34;;;26.38;30.11
48792;BME280;34587;48.816;9.420;2023-07-20T14:30:24;98409.03;;;26.82;30.14
48792;BME280;34587;48.816;9.420;2023-07-20T14:32:49;98404.16;;;27.26;29.58
48792;BME280;34587;48.816;9.420;2023-07-20T14:35:14;98402.25;;;27.65;29.53
48792;BME280;34587;48.816;9.420;2023-07-20T14:37:39;98412.72;;;27.20;29.13
48792;BME280;34587;48.816;9.420;2023-07-20T14:40:05;98403.47;;;28.18;28.59
48792;BME280;34587;48.816;9.420;2023-07-20T14:42:31;98394.03;;;28.24;28.33
48792;BME280;34587;48.816;9.420;2023-07-20T14:44:57;98398.59;;;27.86;28.96
48792;BME280;34587;48.816;9.420;2023-07-20T14:47:22;98406.81;;;27.36;29.15
48792;BME280;34587;48.816;9.420;2023-07-20T14:49:48;98399.28;;;28.15;28.86
48792;BME280;34587;48.816;9.420;2023-07-20T14:52:13;98400.63;;;28.02;29.30
48792;BME280;34587;48.816;9.420;2023-07-20T14:54:38;98396.28;;;28.01;29.51
48792;BME280;34587;48.816;9.420;2023-07-20T14:57:04;98403.97;;;28.04;29.14
48792;BME280;34587;48.816;9.420;2023-07-20T14:59:29;98409.34;;;26.79;29.61
48792;BME280;34587;48.816;9.420;2023-07-20T15:01:55;98398.28;;;26.84;29.07
48792;BME280;34587;48.816;9.420;2023-07-20T15:04:20;98403.75;;;27.21;28.99
48792;BME280;34587;48.816;9.420;2023-07-20T15:06:45;98394.75;;;26.93;29.53
48792;BME280;34587;48.816;9.420;2023-07-20T15:09:11;98389.44;;;27.41;28.91
48792;BME280;34587;48.816;9.420;2023-07-20T15:11:36;98395.50;;;27.14;29.94
48792;BME280;34587;48.816;9.420;2023-07-20T15:14:02;98387.09;;;26.90;30.19
48792;BME280;34587;48.816;9.420;2023-07-20T15:16:27;98380.94;;;27.75;29.40
48792;BME280;34587;48.816;9.420;2023-07-20T15:18:52;98389.28;;;27.53;29.06
48792;BME280;34587;48.816;9.420;2023-07-20T15:21:18;98377.84;;;27.04;30.24
48792;BME280;34587;48.816;9.420;2023-07-20T15:23:43;98372.97;;;27.09;29.08
48792;BME280;34587;48.816;9.420;2023-07-20T15:26:09;98372.19;;;27.92;29.24
48792;BME280;34587;48.816;9.420;2023-07-20T15:28:36;98375.88;;;27.25;28.47
48792;BME280;34587;48.816;9.420;2023-07-20T15:31:02;98383.63;;;27.09;30.19
48792;BME280;34587;48.816;9.420;2023-07-20T15:33:28;98375.31;;;26.92;29.33
48792;BME280;34587;48.816;9.420;2023-07-20T15:35:53;98367.63;;;26.89;30.00
48792;BME280;34587;48.816;9.420;2023-07-20T15:38:19;98368.31;;;26.62;29.19
48792;BME280;34587;48.816;9.420;2023-07-20T15:40:44;98363.72;;;27.03;28.69
48792;BME280;34587;48.816;9.420;2023-07-20T15:43:10;98352.38;;;26.72;29.86
48792;BME280;34587;48.816;9.420;2023-07-20T15:45:35;98351.75;;;27.36;29.69
48792;BME280;34587;48.816;9.420;2023-07-20T15:48:00;98354.28;;;27.38;29.04
48792;BME280;34587;48.816;9.420;2023-07-20T15:50:25;98344.41;;;27.11;29.47
48792;BME280;34587;48.816;9.420;2023-07-20T15:52:51;98350.00;;;27.18;28.13
48792;BME280;34587;48.816;9.420;2023-07-20T15:55:17;98352.09;;;26.56;29.92
48792;BME280;34587;48.816;9.420;2023-07-20T15:57:42;98344.50;;;25.61;30.55
48792;BME280;34587;48.816;9.420;2023-07-20T16:00:08;98342.38;;;26.16;30.04
48792;BME280;34587;48.816;9.420;2023-07-20T16:02:34;98345.59;;;26.29;30.01
48792;BME280;34587;48.816;9.420;2023-07-20T16:05:00;98345.75;;;26.28;30.19
48792;BME280;34587;48.816;9.420;2023-07-20T16:07:25;98340.06;;;25.92;31.00
48792;BME280;34587;48.816;9.420;2023-07-20T16:09:51;98349.31;;;25.98;31.83
48792;BME280;34587;48.816;9.420;2023-07-20T16:12:18;98331.19;;;26.22;30.99
48792;BME280;34587;48.816;9.420;2023-07-20T16:14:45;98337.41;;;26.52;30.17
48792;BME280;34587;48.816;9.420;2023-07-20T16:17:12;98331.41;;;26.50;30.50
48792;BME280;34587;48.816;9.420;2023-07-20T16:19:37;98334.25;;;26.18;30.36
48792;BME280;34587;48.816;9.420;2023-07-20T16:22:03;98336.47;;;26.03;30.49
48792;BME280;34587;48.816;9.420;2023-07-20T16:24:29;98324.22;;;26.21;30.43
48792;BME280;34587;48.816;9.420;2023-07-20T16:26:56;98326.16;;;26.38;31.16
48792;BME280;34587;48.816;9.420;2023-07-20T16:29:21;98334.22;;;25.98;31.35
48792;BME280;34587;48.816;9.420;2023-07-20T16:31:49;98330.00;;;25.96;30.73
48792;BME280;34587;48.816;9.420;2023-07-20T16:34:14;98324.03;;;26.13;30.60
48792;BME280;34587;48.816;9.420;2023-07-20T16:36:39;98330.69;;;26.67;30.44
48792;BME280;34587;48.816;9.420;2023-07-20T16:39:06;98328.53;;;26.22;31.60
48792;BME280;34587;48.816;9.420;2023-07-20T16:41:32;98326.44;;;26.16;31.22
48792;BME280;34587;48.816;9.420;2023-07-20T16:43:57;98327.31;;;25.86;31.63
48792;BME280;34587;48.816;9.420;2023-07-20T16:46:22;98320.44;;;25.53;32.13
48792;BME280;34587;48.816;9.420;2023-07-20T16:48:48;98318.13;;;25.59;32.36
48792;BME280;34587;48.816;9.420;2023-07-20T16:51:13;98310.72;;;25.94;31.80
48792;BME280;34587;48.816;9.420;2023-07-20T16:53:38;98320.47;;;25.83;32.51
48792;BME280;34587;48.816;9.420;2023-07-20T16:56:03;98321.66;;;26.10;32.19
48792;BME280;34587;48.816;9.420;2023-07-20T16:58:29;98316.75;;;25.65;32.50
48792;BME280;34587;48.816;9.420;2023-07-20T17:01:01;98321.72;;;25.49;32.30
48792;BME280;34587;48.816;9.420;2023-07-20T17:03:27;98314.81;;;25.36;32.42
48792;BME280;34587;48.816;9.420;2023-07-20T17:05:53;98315.72;;;25.56;32.54
48792;BME280;34587;48.816;9.420;2023-07-20T17:08:19;98316.41;;;25.49;31.95
48792;BME280;34587;48.816;9.420;2023-07-20T17:10:44;98326.72;;;25.00;32.51
48792;BME280;34587;48.816;9.420;2023-07-20T17:13:09;98324.38;;;24.86;32.85